createdAt,value
2023-05-09T00:00:12.718Z,3.10
2023-05-09T00:02:45.774Z,3.63
2023-05-09T00:05:14.993Z,5.60
2023-05-09T00:07:43.466Z,3.67
2023-05-09T00:10:11.872Z,4.70
2023-05-09T00:12:39.934Z,5.83
2023-05-09T00:15:09.241Z,3.37
2023-05-09T00:17:38.536Z,5.83
2023-05-09T00:20:12.227Z,3.37
2023-05-09T00:22:40.938Z,3.60
2023-05-09T00:25:09.922Z,3.80
2023-05-09T00:27:38.137Z,3.47
2023-05-09T00:30:07.274Z,4.20
2023-05-09T00:32:35.667Z,3.40
2023-05-09T00:35:03.857Z,4.40
2023-05-09T00:37:33.181Z,5.63
2023-05-09T00:40:01.095Z,3.63
2023-05-09T00:42:29.066Z,3.47
2023-05-09T00:44:57.032Z,3.70
2023-05-09T00:47:25.197Z,3.90
2023-05-09T00:49:53.214Z,4.60
2023-05-09T00:52:23.430Z,3.30
2023-05-09T00:54:53.322Z,4.10
2023-05-09T00:57:21.495Z,4.03
2023-05-09T00:59:49.723Z,3.90
2023-05-09T01:02:18.494Z,4.07
2023-05-09T01:04:46.961Z,5.63
2023-05-09T01:07:22.864Z,5.77
2023-05-09T01:10:01.247Z,3.90
2023-05-09T01:12:37.855Z,4.70
2023-05-09T01:15:13.564Z,5.03
2023-05-09T01:17:49.341Z,4.10
2023-05-09T01:20:24.168Z,4.10
2023-05-09T01:23:01.915Z,4.40
2023-05-09T01:25:45.725Z,4.87
2023-05-09T01:28:30.568Z,4.67
2023-05-09T01:31:00.552Z,3.87
2023-05-09T01:33:30.239Z,4.20
2023-05-09T01:36:03.378Z,4.40
2023-05-09T01:38:33.716Z,5.43
2023-05-09T01:41:05.316Z,4.87
2023-05-09T01:43:35.499Z,4.67
2023-05-09T01:46:06.882Z,4.33
2023-05-09T01:48:37.007Z,4.13
2023-05-09T01:51:06.401Z,4.70
2023-05-09T01:53:35.525Z,4.60
2023-05-09T01:56:05.473Z,4.07
2023-05-09T01:58:35.103Z,4.37
2023-05-09T02:01:05.081Z,4.83
2023-05-09T02:03:34.980Z,4.93
2023-05-09T02:06:05.163Z,4.73
2023-05-09T02:08:33.760Z,5.43
2023-05-09T02:11:01.778Z,4.27
2023-05-09T02:13:30.140Z,6.90
2023-05-09T02:15:58.218Z,5.10
2023-05-09T02:18:27.522Z,5.60
2023-05-09T02:20:55.681Z,6.43
2023-05-09T02:23:23.662Z,5.00
2023-05-09T02:25:54.230Z,5.50
2023-05-09T02:28:23.463Z,5.27
2023-05-09T02:30:53.129Z,6.20
2023-05-09T02:33:21.151Z,4.77
2023-05-09T02:35:51.557Z,4.70
2023-05-09T02:38:21.407Z,5.00
2023-05-09T02:40:52.164Z,5.80
2023-05-09T02:43:48.007Z,5.23
2023-05-09T02:46:18.645Z,5.60
2023-05-09T02:48:46.623Z,5.20
2023-05-09T02:51:15.926Z,5.50
2023-05-09T02:53:43.859Z,5.00
2023-05-09T02:56:11.852Z,4.90
2023-05-09T02:58:39.778Z,7.10
2023-05-09T03:01:07.756Z,5.60
2023-05-09T03:03:36.128Z,4.73
2023-05-09T03:06:04.088Z,4.97
2023-05-09T03:08:33.369Z,5.47
2023-05-09T03:11:01.350Z,5.80
2023-05-09T03:13:29.237Z,5.83
2023-05-09T03:15:57.176Z,5.83
2023-05-09T03:18:25.282Z,5.33
2023-05-09T03:20:53.174Z,5.90
2023-05-09T03:23:21.105Z,5.50
2023-05-09T03:25:50.493Z,5.40
2023-05-09T03:31:16.572Z,6.13
2023-05-09T03:33:44.490Z,5.80
2023-05-09T03:36:12.398Z,6.27
2023-05-09T03:38:40.402Z,6.77
2023-05-09T03:41:09.735Z,6.00
2023-05-09T03:43:37.746Z,5.67
2023-05-09T03:46:06.126Z,6.53
2023-05-09T03:48:34.082Z,5.63
2023-05-09T03:51:02.705Z,6.53
2023-05-09T03:53:30.646Z,5.87
2023-05-09T03:55:58.617Z,5.77
2023-05-09T03:58:27.904Z,6.50
2023-05-09T04:00:57.230Z,6.43
2023-05-09T04:03:25.317Z,6.27
2023-05-09T04:05:53.333Z,5.90
2023-05-09T04:08:21.693Z,5.67
2023-05-09T04:10:50.926Z,6.40
2023-05-09T04:13:18.923Z,6.00
2023-05-09T04:15:48.232Z,6.13
2023-05-09T04:18:16.280Z,5.97
2023-05-09T04:20:44.215Z,6.10
2023-05-09T04:23:12.127Z,6.50
2023-05-09T04:25:40.172Z,6.03
2023-05-09T04:28:08.348Z,6.30
2023-05-09T04:30:37.053Z,6.20
2023-05-09T04:33:06.449Z,6.00
2023-05-09T04:35:34.459Z,6.80
2023-05-09T04:38:02.348Z,6.70
2023-05-09T04:40:30.728Z,7.57
2023-05-09T04:42:59.016Z,6.50
2023-05-09T04:45:27.686Z,6.37
2023-05-09T04:47:55.671Z,6.20
2023-05-09T04:50:25.098Z,6.77
2023-05-09T04:52:53.023Z,6.83
2023-05-09T04:55:21.131Z,6.33
2023-05-09T04:57:49.072Z,8.20
2023-05-09T05:00:19.289Z,8.77
2023-05-09T05:02:47.484Z,6.93
2023-05-09T05:05:15.446Z,7.00
2023-05-09T05:07:44.757Z,7.13
2023-05-09T05:10:13.469Z,6.80
2023-05-09T05:12:41.489Z,7.30
2023-05-09T05:15:10.309Z,6.93
2023-05-09T05:17:38.382Z,6.23
2023-05-09T05:20:08.376Z,6.47
2023-05-09T05:22:36.571Z,7.00
2023-05-09T05:25:06.641Z,6.57
2023-05-09T05:27:34.553Z,6.40
2023-05-09T05:30:02.559Z,8.03
2023-05-09T05:32:30.583Z,7.20
2023-05-09T05:34:58.560Z,9.07
2023-05-09T05:37:26.520Z,6.63
2023-05-09T05:39:54.408Z,7.23
2023-05-09T05:42:23.708Z,8.67
2023-05-09T05:44:51.649Z,7.90
2023-05-09T05:47:19.621Z,7.40
2023-05-09T05:49:48.057Z,6.80
2023-05-09T05:52:16.011Z,6.67
2023-05-09T05:54:43.914Z,6.83
2023-05-09T05:57:11.878Z,8.63
2023-05-09T05:59:41.165Z,7.70
2023-05-09T06:02:09.107Z,7.07
2023-05-09T06:04:37.100Z,6.43
2023-05-09T06:07:05.072Z,7.90
2023-05-09T06:09:33.034Z,7.00
2023-05-09T06:12:01.069Z,7.70
2023-05-09T06:14:28.990Z,7.83
2023-05-09T06:16:59.098Z,6.57
2023-05-09T06:19:27.076Z,7.87
2023-05-09T06:21:55.062Z,8.03
2023-05-09T06:24:34.341Z,7.60
2023-05-09T06:27:03.575Z,7.70
2023-05-09T06:29:31.581Z,8.10
2023-05-09T06:32:01.152Z,7.73
2023-05-09T06:34:29.150Z,7.13
2023-05-09T06:36:57.086Z,7.20
2023-05-09T06:39:25.014Z,9.97
2023-05-09T06:41:52.995Z,7.10
2023-05-09T06:44:21.069Z,6.87
2023-05-09T06:46:49.110Z,6.90
2023-05-09T06:49:18.425Z,6.87
2023-05-09T06:51:46.376Z,7.30
2023-05-09T06:54:14.326Z,7.17
2023-05-09T06:56:42.312Z,7.03
2023-05-09T06:59:13.374Z,7.33
2023-05-09T07:01:41.413Z,7.53
2023-05-09T07:04:09.609Z,7.57
2023-05-09T07:06:38.896Z,6.90
2023-05-09T07:09:06.833Z,7.27
2023-05-09T07:11:38.182Z,8.80
2023-05-09T07:14:06.271Z,6.77
2023-05-09T07:16:36.641Z,7.13
2023-05-09T07:19:05.845Z,6.87
2023-05-09T07:21:34.374Z,7.57
2023-05-09T07:24:03.720Z,6.60
2023-05-09T07:26:31.679Z,8.00
2023-05-09T07:28:59.607Z,9.90
2023-05-09T07:31:27.651Z,9.30
2023-05-09T07:33:55.649Z,7.50
2023-05-09T07:36:23.630Z,7.03
2023-05-09T07:38:52.737Z,6.83
2023-05-09T07:41:22.482Z,7.10
2023-05-09T07:43:50.444Z,7.07
2023-05-09T07:46:18.487Z,6.53
2023-05-09T07:48:46.444Z,6.70
2023-05-09T07:51:14.367Z,6.63
2023-05-09T07:53:42.273Z,6.70
2023-05-09T07:56:10.208Z,6.70
2023-05-09T07:58:39.501Z,6.70
2023-05-09T08:01:07.517Z,6.17
2023-05-09T08:03:35.896Z,7.03
2023-05-09T08:06:04.091Z,6.30
2023-05-09T08:08:32.085Z,6.87
2023-05-09T08:11:00.045Z,6.20
2023-05-09T08:13:28.250Z,5.90
2023-05-09T08:15:58.040Z,6.33
2023-05-09T08:18:26.490Z,6.40
2023-05-09T08:20:54.397Z,6.30
2023-05-09T08:23:22.479Z,7.03
2023-05-09T08:25:54.192Z,6.43
2023-05-09T08:28:24.113Z,5.90
2023-05-09T08:30:52.353Z,7.30
2023-05-09T08:33:21.757Z,6.57
2023-05-09T08:35:51.927Z,5.77
2023-05-09T08:38:20.336Z,7.30
2023-05-09T08:40:48.528Z,6.33
2023-05-09T08:43:18.213Z,5.70
2023-05-09T08:45:48.820Z,5.80
2023-05-09T08:48:17.877Z,6.20
2023-05-09T08:50:47.285Z,7.07
2023-05-09T08:53:15.804Z,5.77
2023-05-09T08:55:43.757Z,6.23
2023-05-09T08:58:12.111Z,5.53
2023-05-09T09:00:42.348Z,5.80
2023-05-09T09:03:11.583Z,5.37
2023-05-09T09:05:42.701Z,6.03
2023-05-09T09:08:12.300Z,5.40
2023-05-09T09:10:42.778Z,5.93
2023-05-09T09:13:13.530Z,5.53
2023-05-09T09:15:43.782Z,5.80
2023-05-09T09:18:17.494Z,6.50
2023-05-09T09:20:50.849Z,5.70
2023-05-09T09:23:21.744Z,5.40
2023-05-09T09:25:49.888Z,5.20
2023-05-09T09:28:18.298Z,5.33
2023-05-09T09:30:48.188Z,5.53
2023-05-09T09:33:21.337Z,5.80
2023-05-09T09:35:50.911Z,5.13
2023-05-09T09:38:20.900Z,6.03
2023-05-09T09:40:55.381Z,6.30
2023-05-09T09:43:28.792Z,9.20
2023-05-09T09:45:57.161Z,5.57
2023-05-09T09:48:26.595Z,5.43
2023-05-09T09:50:56.613Z,5.40
2023-05-09T09:53:30.178Z,4.70
2023-05-09T09:55:58.503Z,5.20
2023-05-09T09:58:26.476Z,5.20
2023-05-09T10:01:13.973Z,4.93
2023-05-09T10:03:44.922Z,5.10
2023-05-09T10:06:13.967Z,4.67
2023-05-09T10:08:44.171Z,4.40
2023-05-09T10:11:12.609Z,6.07
2023-05-09T10:13:40.588Z,4.90
2023-05-09T10:16:10.657Z,4.90
2023-05-09T10:18:40.526Z,4.73
2023-05-09T10:21:12.187Z,4.80
2023-05-09T10:23:47.410Z,5.23
2023-05-09T10:26:19.179Z,4.53
2023-05-09T10:28:49.526Z,4.90
2023-05-09T10:31:23.575Z,6.23
2023-05-09T10:33:52.260Z,6.03
2023-05-09T10:36:21.457Z,5.00
2023-05-09T10:38:52.494Z,4.97
2023-05-09T10:41:22.736Z,4.63
2023-05-09T10:43:51.057Z,5.53
2023-05-09T10:46:19.308Z,4.50
2023-05-09T10:48:49.828Z,4.70
2023-05-09T10:51:18.655Z,4.23
2023-05-09T10:53:48.665Z,4.60
2023-05-09T10:56:26.830Z,4.43
2023-05-09T10:58:55.604Z,6.80
2023-05-09T11:01:35.420Z,5.50
2023-05-09T11:04:10.042Z,4.53
2023-05-09T11:06:49.001Z,6.67
2023-05-09T11:09:33.113Z,4.53
2023-05-09T11:12:13.780Z,4.80
2023-05-09T11:14:44.311Z,6.07
2023-05-09T11:17:13.650Z,4.03
2023-05-09T11:20:02.119Z,5.07
2023-05-09T11:22:32.497Z,4.63
2023-05-09T11:25:04.626Z,5.53
2023-05-09T11:27:43.502Z,4.90
2023-05-09T11:30:14.350Z,6.20
2023-05-09T11:32:45.164Z,4.30
2023-05-09T11:35:15.658Z,5.00
2023-05-09T11:37:49.097Z,4.47
2023-05-09T11:40:18.699Z,5.10
2023-05-09T11:42:50.432Z,4.27
2023-05-09T11:45:18.693Z,3.90
2023-05-09T11:47:47.729Z,5.57
2023-05-09T11:50:17.782Z,4.20
2023-05-09T11:52:45.976Z,4.10
2023-05-09T11:55:16.384Z,4.17
2023-05-09T11:57:48.841Z,3.87
2023-05-09T12:00:17.947Z,4.03
2023-05-09T12:02:47.077Z,4.80
2023-05-09T12:05:16.837Z,4.23
2023-05-09T12:07:45.109Z,5.40
2023-05-09T12:10:14.392Z,4.43
2023-05-09T12:12:48.396Z,4.40
2023-05-09T12:15:17.521Z,4.30
2023-05-09T12:17:48.827Z,4.83
2023-05-09T12:20:18.423Z,4.67
2023-05-09T12:22:53.561Z,5.10
2023-05-09T12:25:21.819Z,5.70
2023-05-09T12:27:54.481Z,5.90
2023-05-09T12:30:22.479Z,10.27
2023-05-09T12:32:50.653Z,10.03
2023-05-09T12:35:22.774Z,13.53
2023-05-09T12:37:57.732Z,12.63
2023-05-09T12:40:26.143Z,13.93
2023-05-09T12:43:00.747Z,10.10
2023-05-09T12:45:28.831Z,7.77
2023-05-09T12:47:58.542Z,7.17
2023-05-09T12:50:34.893Z,5.20
2023-05-09T12:53:04.205Z,5.27
2023-05-09T12:55:32.845Z,5.60
2023-05-09T12:58:04.033Z,5.37
2023-05-09T13:00:43.600Z,4.60
2023-05-09T13:03:25.930Z,4.60
2023-05-09T13:05:58.217Z,5.10
2023-05-09T13:08:26.355Z,5.00
2023-05-09T13:11:04.115Z,5.17
2023-05-09T13:13:43.983Z,4.27
2023-05-09T13:16:13.435Z,4.13
2023-05-09T13:18:43.714Z,4.73
2023-05-09T13:21:11.632Z,4.60
2023-05-09T13:23:39.600Z,4.57
2023-05-09T13:26:07.606Z,5.13
2023-05-09T13:28:35.605Z,4.63
2023-05-09T13:31:05.073Z,4.33
2023-05-09T13:33:33.152Z,8.50
2023-05-09T13:36:01.219Z,4.40
2023-05-09T13:38:30.797Z,4.50
2023-05-09T13:40:59.012Z,5.23
2023-05-09T13:43:27.708Z,4.40
2023-05-09T13:45:55.733Z,3.80
2023-05-09T13:48:25.216Z,4.10
2023-05-09T13:50:53.342Z,3.77
2023-05-09T13:53:21.324Z,5.47
2023-05-09T13:55:49.309Z,4.20
2023-05-09T13:58:17.246Z,6.83
2023-05-09T14:00:45.473Z,4.93
2023-05-09T14:03:13.446Z,4.80
2023-05-09T14:05:43.379Z,4.17
2023-05-09T14:08:11.397Z,3.90
2023-05-09T14:10:39.576Z,4.37
2023-05-09T14:13:08.351Z,6.27
2023-05-09T14:15:36.650Z,8.40
2023-05-09T14:18:04.791Z,4.90
2023-05-09T14:20:34.901Z,4.27
2023-05-09T14:23:04.367Z,4.30
2023-05-09T14:25:32.385Z,4.83
2023-05-09T14:28:00.386Z,4.20
2023-05-09T14:30:28.406Z,4.00
2023-05-09T14:32:56.316Z,3.97
2023-05-09T14:35:24.602Z,4.73
2023-05-09T14:37:52.663Z,4.40
2023-05-09T14:40:22.722Z,3.77
2023-05-09T14:42:50.657Z,4.40
2023-05-09T14:45:18.799Z,4.23
2023-05-09T14:47:48.043Z,4.00
2023-05-09T14:50:16.805Z,7.37
2023-05-09T14:52:45.124Z,3.60
2023-05-09T14:55:13.472Z,4.10
2023-05-09T14:57:42.817Z,4.37
2023-05-09T15:00:20.277Z,3.97
2023-05-09T15:02:49.581Z,5.77
2023-05-09T15:05:18.190Z,4.10
2023-05-09T15:07:46.395Z,3.47
2023-05-09T15:10:14.835Z,4.50
2023-05-09T15:12:44.716Z,4.23
2023-05-09T15:15:17.420Z,7.07
2023-05-09T15:17:46.158Z,3.90
2023-05-09T15:20:16.141Z,5.63
2023-05-09T15:22:44.805Z,4.10
2023-05-09T15:25:12.931Z,3.73
2023-05-09T15:27:41.070Z,4.67
2023-05-09T15:30:11.767Z,4.63
2023-05-09T15:32:42.920Z,4.13
2023-05-09T15:35:11.180Z,3.93
2023-05-09T15:37:39.215Z,7.00
2023-05-09T15:40:08.543Z,7.50
2023-05-09T15:42:36.775Z,6.00
2023-05-09T15:45:05.120Z,8.50
2023-05-09T15:47:34.509Z,3.53
2023-05-09T15:50:02.716Z,4.77
2023-05-09T15:52:30.707Z,4.10
2023-05-09T15:54:58.848Z,4.87
2023-05-09T15:57:26.847Z,3.80
2023-05-09T15:59:55.920Z,4.90
2023-05-09T16:02:24.184Z,4.30
2023-05-09T16:04:53.661Z,3.57
2023-05-09T16:07:21.873Z,3.23
2023-05-09T16:09:50.061Z,4.27
2023-05-09T16:12:18.128Z,5.37
2023-05-09T16:14:46.092Z,3.67
2023-05-09T16:17:14.083Z,4.57
2023-05-09T16:19:42.435Z,4.00
2023-05-09T16:22:11.847Z,3.80
2023-05-09T16:24:39.816Z,3.70
2023-05-09T16:27:07.751Z,7.20
2023-05-09T16:29:35.714Z,3.93
2023-05-09T16:32:06.321Z,5.03
2023-05-09T16:34:34.329Z,3.33
2023-05-09T16:37:02.595Z,3.33
2023-05-09T16:39:32.308Z,3.33
2023-05-09T16:42:00.274Z,6.77
2023-05-09T16:44:28.482Z,3.17
2023-05-09T16:46:56.446Z,3.07
2023-05-09T16:49:24.515Z,3.40
2023-05-09T16:51:52.529Z,3.50
2023-05-09T16:54:20.442Z,4.17
2023-05-09T16:56:49.708Z,3.50
2023-05-09T16:59:18.726Z,4.10
2023-05-09T17:01:47.556Z,3.50
2023-05-09T17:04:15.532Z,3.37
2023-05-09T17:06:43.499Z,4.23
2023-05-09T17:09:11.410Z,3.77
2023-05-09T17:11:39.374Z,3.80
2023-05-09T17:14:08.614Z,2.90
2023-05-09T17:16:38.087Z,4.80
2023-05-09T17:19:06.353Z,3.13
2023-05-09T17:21:34.450Z,3.07
2023-05-09T17:24:03.025Z,3.50
2023-05-09T17:26:31.102Z,3.83
2023-05-09T17:28:59.366Z,5.00
2023-05-09T17:31:28.881Z,5.37
2023-05-09T17:33:56.982Z,3.27
2023-05-09T17:36:25.665Z,4.40
2023-05-09T17:38:53.633Z,3.20
2023-05-09T17:41:22.173Z,4.37
2023-05-09T17:43:51.891Z,3.13
2023-05-09T17:46:19.855Z,3.40
2023-05-09T17:48:49.281Z,3.50
2023-05-09T17:51:17.605Z,3.97
2023-05-09T17:53:45.545Z,2.60
2023-05-09T17:56:13.510Z,3.23
2023-05-09T17:58:41.438Z,7.20
2023-05-09T18:01:09.692Z,2.70
2023-05-09T18:03:37.833Z,5.47
2023-05-09T18:06:07.399Z,4.40
2023-05-09T18:08:36.591Z,3.70
2023-05-09T18:11:04.633Z,4.20
2023-05-09T18:13:33.486Z,3.20
2023-05-09T18:16:01.804Z,3.30
2023-05-09T18:18:32.261Z,2.80
2023-05-09T18:21:00.286Z,3.47
2023-05-09T18:23:30.357Z,2.77
2023-05-09T18:25:58.354Z,2.90
2023-05-09T18:28:27.440Z,4.07
2023-05-09T18:30:56.524Z,3.53
2023-05-09T18:33:26.519Z,6.67
2023-05-09T18:35:55.088Z,4.83
2023-05-09T18:38:23.738Z,3.33
2023-05-09T18:40:53.060Z,4.30
2023-05-09T18:43:21.589Z,3.77
2023-05-09T18:45:49.963Z,4.00
2023-05-09T18:48:18.025Z,5.43
2023-05-09T18:50:47.107Z,3.50
2023-05-09T18:53:15.140Z,3.13
2023-05-09T18:55:43.289Z,4.13
2023-05-09T18:58:13.545Z,4.10
2023-05-09T19:00:42.703Z,3.23
2023-05-09T19:03:10.807Z,3.50
2023-05-09T19:05:38.852Z,3.30
2023-05-09T19:08:07.266Z,6.10
2023-05-09T19:10:36.466Z,4.30
2023-05-09T19:13:05.373Z,5.97
2023-05-09T19:15:34.840Z,2.57
2023-05-09T19:18:03.587Z,3.00
2023-05-09T19:20:31.927Z,3.57
2023-05-09T19:23:00.353Z,3.40
2023-05-09T19:25:30.364Z,3.13
2023-05-09T19:27:58.327Z,3.13
2023-05-09T19:30:26.307Z,3.20
2023-05-09T19:32:55.707Z,2.70
2023-05-09T19:35:23.912Z,3.30
2023-05-09T19:37:51.871Z,5.07
2023-05-09T19:40:19.968Z,3.80
2023-05-09T19:42:47.956Z,3.37
2023-05-09T19:45:16.010Z,3.57
2023-05-09T19:47:43.971Z,4.40
2023-05-09T19:50:13.907Z,4.63
2023-05-09T19:52:42.111Z,3.40
2023-05-09T19:55:11.177Z,3.37
2023-05-09T19:57:39.182Z,3.00
2023-05-09T20:00:08.271Z,5.20
2023-05-09T20:02:36.345Z,4.00
2023-05-09T20:05:04.583Z,3.87
2023-05-09T20:07:33.919Z,3.33
2023-05-09T20:10:01.830Z,3.47
2023-05-09T20:12:30.359Z,3.70
2023-05-09T20:14:58.627Z,3.50
2023-05-09T20:17:26.598Z,3.17
2023-05-09T20:19:54.604Z,3.13
2023-05-09T20:22:22.539Z,3.10
2023-05-09T20:24:51.850Z,3.27
2023-05-09T20:27:19.764Z,3.57
2023-05-09T20:29:47.705Z,3.57
2023-05-09T20:32:15.655Z,3.57
2023-05-09T20:34:43.575Z,3.73
2023-05-09T20:37:11.911Z,3.63
2023-05-09T20:39:39.872Z,3.00
2023-05-09T20:42:09.142Z,3.30
2023-05-09T20:44:39.198Z,4.27
2023-05-09T20:47:07.190Z,3.10
2023-05-09T20:49:35.299Z,2.67
2023-05-09T20:52:03.229Z,3.30
2023-05-09T20:54:31.946Z,3.50
2023-05-09T20:56:59.920Z,3.97
2023-05-09T20:59:29.248Z,3.50
2023-05-09T21:01:57.227Z,3.83
2023-05-09T21:04:25.188Z,4.13
2023-05-09T21:06:53.185Z,3.40
2023-05-09T21:09:21.153Z,3.27
2023-05-09T21:11:49.102Z,3.50
2023-05-09T21:14:17.089Z,4.37
2023-05-09T21:16:46.593Z,3.63
2023-05-09T21:19:14.609Z,4.07
2023-05-09T21:21:42.658Z,5.13
2023-05-09T21:24:10.907Z,4.40
2023-05-09T21:26:38.818Z,3.27
2023-05-09T21:29:06.715Z,5.30
2023-05-09T21:31:34.723Z,4.67
2023-05-09T21:34:09.628Z,4.50
2023-05-09T21:36:38.213Z,3.43
2023-05-09T21:39:09.429Z,3.47
2023-05-09T21:41:37.979Z,3.93
2023-05-09T21:44:07.356Z,3.67
2023-05-09T21:46:36.214Z,3.77
2023-05-09T21:49:05.803Z,3.50
2023-05-09T21:51:34.041Z,3.60
2023-05-09T21:54:02.249Z,3.87
2023-05-09T21:56:30.727Z,4.67
2023-05-09T21:58:58.760Z,3.40
2023-05-09T22:01:26.716Z,3.83
2023-05-09T22:03:54.843Z,3.97
2023-05-09T22:06:24.287Z,3.90
2023-05-09T22:08:52.211Z,4.00
2023-05-09T22:11:20.291Z,3.83
2023-05-09T22:13:48.285Z,3.67
2023-05-09T22:16:16.329Z,4.13
2023-05-09T22:18:44.276Z,4.47
2023-05-09T22:21:12.669Z,4.23
2023-05-09T22:23:42.010Z,3.60
2023-05-09T22:26:10.018Z,4.90
2023-05-09T22:28:38.287Z,4.80
2023-05-09T22:31:07.514Z,3.60
2023-05-09T22:33:35.581Z,4.30
2023-05-09T22:36:03.679Z,4.47
2023-05-09T22:38:31.659Z,6.00
2023-05-09T22:41:00.972Z,4.23
2023-05-09T22:43:36.854Z,4.67
2023-05-09T22:46:07.134Z,6.43
2023-05-09T22:48:35.440Z,5.53
2023-05-09T22:51:03.429Z,4.40
2023-05-09T22:53:32.672Z,4.13
2023-05-09T22:56:02.005Z,4.83
2023-05-09T22:58:29.986Z,4.13
2023-05-09T23:00:57.974Z,5.50
2023-05-09T23:03:26.029Z,5.10
2023-05-09T23:05:54.010Z,5.40
2023-05-09T23:08:21.982Z,4.27
2023-05-09T23:10:49.900Z,4.57
2023-05-09T23:13:19.285Z,6.93
2023-05-09T23:15:48.048Z,4.53
2023-05-09T23:18:16.116Z,4.63
2023-05-09T23:20:44.110Z,5.30
2023-05-09T23:23:12.093Z,4.97
2023-05-09T23:29:22.726Z,5.03
2023-05-09T23:31:50.676Z,4.67
2023-05-09T23:34:18.670Z,5.27
2023-05-09T23:36:48.809Z,5.10
2023-05-09T23:39:17.093Z,7.20
2023-05-09T23:41:45.118Z,4.97
2023-05-09T23:44:13.970Z,5.00
2023-05-09T23:46:43.323Z,5.30
2023-05-09T23:49:13.222Z,5.17
2023-05-09T23:51:41.289Z,5.37
2023-05-09T23:54:09.508Z,5.50
2023-05-09T23:56:37.467Z,6.13
2023-05-09T23:59:05.437Z,5.23
